sensor_id;sensor_type;location;lat;lon;timestamp;temperature;humidity
15386;DHT22;7791;47.246;9.648;2023-04-06T00:00:58;3.10;99.90
15386;DHT22;7791;47.246;9.648;2023-04-06T00:03:23;3.10;99.90
15386;DHT22;7791;47.246;9.648;2023-04-06T00:05:49;3.00;99.90
15386;DHT22;7791;47.246;9.648;2023-04-06T00:08:15;2.90;99.90
15386;DHT22;7791;47.246;9.648;2023-04-06T00:10:41;2.90;99.90
15386;DHT22;7791;47.246;9.648;2023-04-06T00:13:07;2.80;99.90
15386;DHT22;7791;47.246;9.648;2023-04-06T00:15:34;2.60;99.90
15386;DHT22;7791;47.246;9.648;2023-04-06T00:18:00;2.40;99.90
15386;DHT22;7791;47.246;9.648;2023-04-06T00:20:26;2.30;99.90
15386;DHT22;7791;47.246;9.648;2023-04-06T00:22:51;2.20;99.90
15386;DHT22;7791;47.246;9.648;2023-04-06T00:25:17;2.10;99.90
15386;DHT22;7791;47.246;9.648;2023-04-06T00:27:43;2.10;99.90
15386;DHT22;7791;47.246;9.648;2023-04-06T00:30:10;2.10;99.90
15386;DHT22;7791;47.246;9.648;2023-04-06T00:32:37;2.10;99.90
15386;DHT22;7791;47.246;9.648;2023-04-06T00:35:03;2.10;99.90
15386;DHT22;7791;47.246;9.648;2023-04-06T00:37:29;2.00;99.90
15386;DHT22;7791;47.246;9.648;2023-04-06T00:39:55;1.80;99.90
15386;DHT22;7791;47.246;9.648;2023-04-06T00:42:21;1.70;99.90
15386;DHT22;7791;47.246;9.648;2023-04-06T00:44:47;1.50;99.90
15386;DHT22;7791;47.246;9.648;2023-04-06T00:47:13;1.50;99.90
15386;DHT22;7791;47.246;9.648;2023-04-06T00:49:40;1.50;99.90
15386;DHT22;7791;47.246;9.648;2023-04-06T00:52:06;1.40;99.90
15386;DHT22;7791;47.246;9.648;2023-04-06T00:54:32;1.30;99.90
15386;DHT22;7791;47.246;9.648;2023-04-06T00:56:58;1.30;99.90
15386;DHT22;7791;47.246;9.648;2023-04-06T00:59:23;1.30;99.90
15386;DHT22;7791;47.246;9.648;2023-04-06T01:01:49;1.20;99.90
15386;DHT22;7791;47.246;9.648;2023-04-06T01:04:15;1.10;99.90
15386;DHT22;7791;47.246;9.648;2023-04-06T01:06:42;0.90;99.90
15386;DHT22;7791;47.246;9.648;2023-04-06T01:09:08;0.70;99.90
15386;DHT22;7791;47.246;9.648;2023-04-06T01:11:35;0.50;99.90
15386;DHT22;7791;47.246;9.648;2023-04-06T01:14:04;0.40;99.90
15386;DHT22;7791;47.246;9.648;2023-04-06T01:16:29;0.20;99.90
15386;DHT22;7791;47.246;9.648;2023-04-06T01:18:55;0.10;99.90
15386;DHT22;7791;47.246;9.648;2023-04-06T01:21:21;-0.10;99.90
15386;DHT22;7791;47.246;9.648;2023-04-06T01:23:48;-0.30;99.90
15386;DHT22;7791;47.246;9.648;2023-04-06T01:26:14;-0.40;99.90
15386;DHT22;7791;47.246;9.648;2023-04-06T01:28:40;-0.50;99.90
15386;DHT22;7791;47.246;9.648;2023-04-06T01:31:06;-0.60;99.90
15386;DHT22;7791;47.246;9.648;2023-04-06T01:33:32;-0.60;99.90
15386;DHT22;7791;47.246;9.648;2023-04-06T01:35:58;-0.60;99.90
15386;DHT22;7791;47.246;9.648;2023-04-06T01:38:24;-0.50;99.90
15386;DHT22;7791;47.246;9.648;2023-04-06T01:40:51;-0.50;99.90
15386;DHT22;7791;47.246;9.648;2023-04-06T01:43:17;-0.60;99.90
15386;DHT22;7791;47.246;9.648;2023-04-06T01:45:43;-0.60;99.90
15386;DHT22;7791;47.246;9.648;2023-04-06T01:48:09;-0.70;99.90
15386;DHT22;7791;47.246;9.648;2023-04-06T01:50:34;-0.80;99.90
15386;DHT22;7791;47.246;9.648;2023-04-06T01:53:00;-0.80;99.90
15386;DHT22;7791;47.246;9.648;2023-04-06T01:55:26;-0.90;99.90
15386;DHT22;7791;47.246;9.648;2023-04-06T01:57:53;-1.00;99.90
15386;DHT22;7791;47.246;9.648;2023-04-06T02:00:19;-1.00;99.90
15386;DHT22;7791;47.246;9.648;2023-04-06T02:02:45;-1.00;99.90
15386;DHT22;7791;47.246;9.648;2023-04-06T02:05:11;-1.00;99.90
15386;DHT22;7791;47.246;9.648;2023-04-06T02:07:37;-0.90;99.90
15386;DHT22;7791;47.246;9.648;2023-04-06T02:10:03;-1.00;99.90
15386;DHT22;7791;47.246;9.648;2023-04-06T02:12:29;-1.10;99.90
15386;DHT22;7791;47.246;9.648;2023-04-06T02:14:56;-1.20;99.90
15386;DHT22;7791;47.246;9.648;2023-04-06T02:17:22;-1.20;99.90
15386;DHT22;7791;47.246;9.648;2023-04-06T02:19:48;-1.20;99.90
15386;DHT22;7791;47.246;9.648;2023-04-06T02:22:14;-1.30;99.90
15386;DHT22;7791;47.246;9.648;2023-04-06T02:24:40;-1.30;99.90
15386;DHT22;7791;47.246;9.648;2023-04-06T02:27:06;-1.30;99.90
15386;DHT22;7791;47.246;9.648;2023-04-06T02:29:31;-1.40;99.90
15386;DHT22;7791;47.246;9.648;2023-04-06T02:31:59;-1.30;99.90
15386;DHT22;7791;47.246;9.648;2023-04-06T02:34:24;-1.20;99.90
15386;DHT22;7791;47.246;9.648;2023-04-06T02:36:50;-1.20;99.90
15386;DHT22;7791;47.246;9.648;2023-04-06T02:39:16;-1.30;99.90
15386;DHT22;7791;47.246;9.648;2023-04-06T02:41:42;-1.40;99.90
15386;DHT22;7791;47.246;9.648;2023-04-06T02:44:08;-1.50;99.90
15386;DHT22;7791;47.246;9.648;2023-04-06T02:46:34;-1.50;99.90
15386;DHT22;7791;47.246;9.648;2023-04-06T02:49:04;-1.60;99.90
15386;DHT22;7791;47.246;9.648;2023-04-06T02:51:30;-1.70;99.90
15386;DHT22;7791;47.246;9.648;2023-04-06T02:53:56;-1.70;99.90
15386;DHT22;7791;47.246;9.648;2023-04-06T02:56:22;-1.70;99.90
15386;DHT22;7791;47.246;9.648;2023-04-06T02:58:48;-1.70;99.90
15386;DHT22;7791;47.246;9.648;2023-04-06T03:01:14;-1.80;99.90
15386;DHT22;7791;47.246;9.648;2023-04-06T03:03:40;-1.70;99.90
15386;DHT22;7791;47.246;9.648;2023-04-06T03:06:07;-1.70;99.90
15386;DHT22;7791;47.246;9.648;2023-04-06T03:08:33;-1.60;99.90
15386;DHT22;7791;47.246;9.648;2023-04-06T03:10:58;-1.60;99.90
15386;DHT22;7791;47.246;9.648;2023-04-06T03:13:24;-1.60;99.90
15386;DHT22;7791;47.246;9.648;2023-04-06T03:15:50;-1.60;99.90
15386;DHT22;7791;47.246;9.648;2023-04-06T03:18:20;-1.60;99.90
15386;DHT22;7791;47.246;9.648;2023-04-06T03:20:46;-1.40;99.90
15386;DHT22;7791;47.246;9.648;2023-04-06T03:23:14;-1.00;99.90
15386;DHT22;7791;47.246;9.648;2023-04-06T03:25:39;-0.70;99.90
15386;DHT22;7791;47.246;9.648;2023-04-06T03:28:05;-0.70;99.90
15386;DHT22;7791;47.246;9.648;2023-04-06T03:30:31;-0.60;99.90
15386;DHT22;7791;47.246;9.648;2023-04-06T03:32:57;-0.50;99.90
15386;DHT22;7791;47.246;9.648;2023-04-06T03:35:22;-0.40;99.90
15386;DHT22;7791;47.246;9.648;2023-04-06T03:37:48;-0.40;99.90
15386;DHT22;7791;47.246;9.648;2023-04-06T03:40:15;-0.30;99.90
15386;DHT22;7791;47.246;9.648;2023-04-06T03:42:41;-0.20;99.90
15386;DHT22;7791;47.246;9.648;2023-04-06T03:45:08;0.00;99.90
15386;DHT22;7791;47.246;9.648;2023-04-06T03:47:34;0.10;99.90
15386;DHT22;7791;47.246;9.648;2023-04-06T03:49:59;0.20;99.90
15386;DHT22;7791;47.246;9.648;2023-04-06T03:52:25;0.30;99.90
15386;DHT22;7791;47.246;9.648;2023-04-06T03:54:51;0.30;99.90
15386;DHT22;7791;47.246;9.648;2023-04-06T03:57:18;0.20;99.90
15386;DHT22;7791;47.246;9.648;2023-04-06T03:59:44;0.20;99.90
15386;DHT22;7791;47.246;9.648;2023-04-06T04:02:10;0.20;99.90
15386;DHT22;7791;47.246;9.648;2023-04-06T04:04:35;0.20;99.90
15386;DHT22;7791;47.246;9.648;2023-04-06T04:07:05;0.10;99.90
15386;DHT22;7791;47.246;9.648;2023-04-06T04:09:30;0.00;99.90
15386;DHT22;7791;47.246;9.648;2023-04-06T04:11:56;-0.10;99.90
15386;DHT22;7791;47.246;9.648;2023-04-06T04:14:23;-0.30;99.90
15386;DHT22;7791;47.246;9.648;2023-04-06T04:16:49;-0.40;99.90
15386;DHT22;7791;47.246;9.648;2023-04-06T04:19:15;-0.30;99.90
15386;DHT22;7791;47.246;9.648;2023-04-06T04:21:44;-0.30;99.90
15386;DHT22;7791;47.246;9.648;2023-04-06T04:24:10;-0.30;99.90
15386;DHT22;7791;47.246;9.648;2023-04-06T04:26:37;-0.40;99.90
15386;DHT22;7791;47.246;9.648;2023-04-06T04:29:03;-0.30;99.90
15386;DHT22;7791;47.246;9.648;2023-04-06T04:31:30;-0.20;99.90
15386;DHT22;7791;47.246;9.648;2023-04-06T04:33:56;-0.20;99.90
15386;DHT22;7791;47.246;9.648;2023-04-06T04:36:22;-0.10;99.90
15386;DHT22;7791;47.246;9.648;2023-04-06T04:38:48;-0.10;99.90
15386;DHT22;7791;47.246;9.648;2023-04-06T04:41:14;-0.10;99.90
15386;DHT22;7791;47.246;9.648;2023-04-06T04:43:40;-0.20;99.90
15386;DHT22;7791;47.246;9.648;2023-04-06T04:46:05;-0.30;99.90
15386;DHT22;7791;47.246;9.648;2023-04-06T04:48:33;-0.60;99.90
15386;DHT22;7791;47.246;9.648;2023-04-06T04:50:58;-0.70;99.90
15386;DHT22;7791;47.246;9.648;2023-04-06T04:53:24;-0.90;99.90
15386;DHT22;7791;47.246;9.648;2023-04-06T04:55:50;-1.00;99.90
15386;DHT22;7791;47.246;9.648;2023-04-06T04:58:16;-1.10;99.90
15386;DHT22;7791;47.246;9.648;2023-04-06T05:00:42;-1.10;99.90
15386;DHT22;7791;47.246;9.648;2023-04-06T05:03:08;-1.20;99.90
15386;DHT22;7791;47.246;9.648;2023-04-06T05:05:35;-1.20;99.90
15386;DHT22;7791;47.246;9.648;2023-04-06T05:08:03;-1.30;99.90
15386;DHT22;7791;47.246;9.648;2023-04-06T05:10:29;-1.20;99.90
15386;DHT22;7791;47.246;9.648;2023-04-06T05:12:55;-1.10;99.90
15386;DHT22;7791;47.246;9.648;2023-04-06T05:15:21;-1.00;99.90
15386;DHT22;7791;47.246;9.648;2023-04-06T05:17:46;-0.80;99.90
15386;DHT22;7791;47.246;9.648;2023-04-06T05:20:12;-0.60;99.90
15386;DHT22;7791;47.246;9.648;2023-04-06T05:22:39;-0.50;99.90
15386;DHT22;7791;47.246;9.648;2023-04-06T05:25:06;-0.50;99.90
15386;DHT22;7791;47.246;9.648;2023-04-06T05:27:31;-0.50;99.90
15386;DHT22;7791;47.246;9.648;2023-04-06T05:29:57;-0.60;99.90
15386;DHT22;7791;47.246;9.648;2023-04-06T05:32:23;-0.70;99.90
15386;DHT22;7791;47.246;9.648;2023-04-06T05:34:49;-0.70;99.90
15386;DHT22;7791;47.246;9.648;2023-04-06T05:37:15;-0.70;99.90
15386;DHT22;7791;47.246;9.648;2023-04-06T05:39:42;-0.70;99.90
15386;DHT22;7791;47.246;9.648;2023-04-06T05:42:08;-0.70;99.90
15386;DHT22;7791;47.246;9.648;2023-04-06T05:44:33;-0.70;99.90
15386;DHT22;7791;47.246;9.648;2023-04-06T05:46:59;-0.50;99.90
15386;DHT22;7791;47.246;9.648;2023-04-06T05:49:25;-0.40;99.90
15386;DHT22;7791;47.246;9.648;2023-04-06T05:51:51;-0.30;99.90
15386;DHT22;7791;47.246;9.648;2023-04-06T05:54:16;0.00;99.90
15386;DHT22;7791;47.246;9.648;2023-04-06T05:56:44;0.10;99.90
15386;DHT22;7791;47.246;9.648;2023-04-06T05:59:09;0.30;99.90
15386;DHT22;7791;47.246;9.648;2023-04-06T06:01:35;0.50;99.90
15386;DHT22;7791;47.246;9.648;2023-04-06T06:04:01;0.60;99.90
15386;DHT22;7791;47.246;9.648;2023-04-06T06:06:27;0.70;99.90
15386;DHT22;7791;47.246;9.648;2023-04-06T06:08:53;0.80;99.90
15386;DHT22;7791;47.246;9.648;2023-04-06T06:11:19;0.80;99.90
15386;DHT22;7791;47.246;9.648;2023-04-06T06:13:46;0.90;99.90
15386;DHT22;7791;47.246;9.648;2023-04-06T06:16:12;0.90;99.90
15386;DHT22;7791;47.246;9.648;2023-04-06T06:18:38;0.90;99.90
15386;DHT22;7791;47.246;9.648;2023-04-06T06:21:04;0.90;99.90
15386;DHT22;7791;47.246;9.648;2023-04-06T06:23:30;0.90;99.90
15386;DHT22;7791;47.246;9.648;2023-04-06T06:25:55;0.70;99.90
15386;DHT22;7791;47.246;9.648;2023-04-06T06:28:21;0.80;99.90
15386;DHT22;7791;47.246;9.648;2023-04-06T06:30:49;0.70;99.90
15386;DHT22;7791;47.246;9.648;2023-04-06T06:33:15;0.70;99.90
15386;DHT22;7791;47.246;9.648;2023-04-06T06:35:41;0.80;99.90
15386;DHT22;7791;47.246;9.648;2023-04-06T06:38:06;0.80;99.90
15386;DHT22;7791;47.246;9.648;2023-04-06T06:40:33;0.90;99.90
15386;DHT22;7791;47.246;9.648;2023-04-06T06:42:59;0.90;99.90
15386;DHT22;7791;47.246;9.648;2023-04-06T06:45:24;1.10;99.90
15386;DHT22;7791;47.246;9.648;2023-04-06T06:47:52;1.80;99.90
15386;DHT22;7791;47.246;9.648;2023-04-06T06:50:18;3.60;99.90
15386;DHT22;7791;47.246;9.648;2023-04-06T06:52:43;5.10;99.90
15386;DHT22;7791;47.246;9.648;2023-04-06T06:55:10;6.70;99.90
15386;DHT22;7791;47.246;9.648;2023-04-06T06:57:36;8.30;99.90
15386;DHT22;7791;47.246;9.648;2023-04-06T07:00:06;8.70;97.50
15386;DHT22;7791;47.246;9.648;2023-04-06T07:02:31;9.30;96.20
15386;DHT22;7791;47.246;9.648;2023-04-06T07:04:59;9.90;94.90
15386;DHT22;7791;47.246;9.648;2023-04-06T07:07:25;11.00;93.20
15386;DHT22;7791;47.246;9.648;2023-04-06T07:09:50;12.00;91.60
15386;DHT22;7791;47.246;9.648;2023-04-06T07:12:16;13.20;89.70
15386;DHT22;7791;47.246;9.648;2023-04-06T07:14:42;14.20;85.60
15386;DHT22;7791;47.246;9.648;2023-04-06T07:17:07;15.00;82.00
15386;DHT22;7791;47.246;9.648;2023-04-06T07:19:33;15.40;77.50
15386;DHT22;7791;47.246;9.648;2023-04-06T07:22:00;16.00;78.60
15386;DHT22;7791;47.246;9.648;2023-04-06T07:24:26;16.60;76.90
15386;DHT22;7791;47.246;9.648;2023-04-06T07:26:52;17.00;74.70
15386;DHT22;7791;47.246;9.648;2023-04-06T07:29:18;17.30;72.30
15386;DHT22;7791;47.246;9.648;2023-04-06T07:31:43;17.60;71.50
15386;DHT22;7791;47.246;9.648;2023-04-06T07:34:09;17.50;70.90
15386;DHT22;7791;47.246;9.648;2023-04-06T07:36:35;17.70;68.30
15386;DHT22;7791;47.246;9.648;2023-04-06T07:39:04;17.30;67.60
15386;DHT22;7791;47.246;9.648;2023-04-06T07:41:30;17.30;66.30
15386;DHT22;7791;47.246;9.648;2023-04-06T07:43:56;17.10;66.20
15386;DHT22;7791;47.246;9.648;2023-04-06T07:46:22;16.50;69.70
15386;DHT22;7791;47.246;9.648;2023-04-06T07:48:48;16.40;69.20
15386;DHT22;7791;47.246;9.648;2023-04-06T07:51:13;16.70;68.20
15386;DHT22;7791;47.246;9.648;2023-04-06T07:53:39;17.30;66.50
15386;DHT22;7791;47.246;9.648;2023-04-06T07:56:07;17.10;64.20
15386;DHT22;7791;47.246;9.648;2023-04-06T07:58:32;16.80;65.90
15386;DHT22;7791;47.246;9.648;2023-04-06T08:00:58;16.70;64.10
15386;DHT22;7791;47.246;9.648;2023-04-06T08:03:24;16.70;64.90
15386;DHT22;7791;47.246;9.648;2023-04-06T08:05:49;16.10;64.10
15386;DHT22;7791;47.246;9.648;2023-04-06T08:08:15;15.60;65.80
15386;DHT22;7791;47.246;9.648;2023-04-06T08:10:41;15.60;63.70
15386;DHT22;7791;47.246;9.648;2023-04-06T08:13:08;15.20;68.40
15386;DHT22;7791;47.246;9.648;2023-04-06T08:15:34;15.20;69.30
15386;DHT22;7791;47.246;9.648;2023-04-06T08:18:00;15.80;67.10
15386;DHT22;7791;47.246;9.648;2023-04-06T08:20:31;15.80;65.00
15386;DHT22;7791;47.246;9.648;2023-04-06T08:22:57;15.70;63.30
15386;DHT22;7791;47.246;9.648;2023-04-06T08:25:22;16.20;64.30
15386;DHT22;7791;47.246;9.648;2023-04-06T08:27:48;16.70;63.40
15386;DHT22;7791;47.246;9.648;2023-04-06T08:30:15;17.40;60.00
15386;DHT22;7791;47.246;9.648;2023-04-06T08:32:41;18.40;58.60
15386;DHT22;7791;47.246;9.648;2023-04-06T08:35:07;18.60;57.20
15386;DHT22;7791;47.246;9.648;2023-04-06T08:37:33;19.40;57.00
15386;DHT22;7791;47.246;9.648;2023-04-06T08:39:59;19.70;55.40
15386;DHT22;7791;47.246;9.648;2023-04-06T08:42:26;19.80;57.60
15386;DHT22;7791;47.246;9.648;2023-04-06T08:44:54;19.80;56.20
15386;DHT22;7791;47.246;9.648;2023-04-06T08:47:22;20.20;53.70
15386;DHT22;7791;47.246;9.648;2023-04-06T08:49:48;20.90;53.40
15386;DHT22;7791;47.246;9.648;2023-04-06T08:52:15;21.50;53.10
15386;DHT22;7791;47.246;9.648;2023-04-06T08:54:43;21.80;52.90
15386;DHT22;7791;47.246;9.648;2023-04-06T08:57:09;20.80;52.00
15386;DHT22;7791;47.246;9.648;2023-04-06T08:59:35;20.50;53.50
15386;DHT22;7791;47.246;9.648;2023-04-06T09:02:03;19.60;54.30
15386;DHT22;7791;47.246;9.648;2023-04-06T09:04:32;20.30;53.80
15386;DHT22;7791;47.246;9.648;2023-04-06T09:06:59;20.10;54.60
15386;DHT22;7791;47.246;9.648;2023-04-06T09:09:24;20.60;53.70
15386;DHT22;7791;47.246;9.648;2023-04-06T09:11:51;21.10;53.30
15386;DHT22;7791;47.246;9.648;2023-04-06T09:14:17;21.60;52.50
15386;DHT22;7791;47.246;9.648;2023-04-06T09:16:44;21.70;52.80
15386;DHT22;7791;47.246;9.648;2023-04-06T09:19:11;21.50;51.50
15386;DHT22;7791;47.246;9.648;2023-04-06T09:21:38;21.30;53.90
15386;DHT22;7791;47.246;9.648;2023-04-06T09:24:05;18.80;54.50
15386;DHT22;7791;47.246;9.648;2023-04-06T09:26:31;17.60;54.60
15386;DHT22;7791;47.246;9.648;2023-04-06T09:28:58;16.00;56.90
15386;DHT22;7791;47.246;9.648;2023-04-06T09:31:25;15.80;58.10
15386;DHT22;7791;47.246;9.648;2023-04-06T09:33:52;15.20;59.20
15386;DHT22;7791;47.246;9.648;2023-04-06T09:36:19;14.80;58.80
15386;DHT22;7791;47.246;9.648;2023-04-06T09:38:54;14.60;61.00
15386;DHT22;7791;47.246;9.648;2023-04-06T09:41:24;14.50;58.30
15386;DHT22;7791;47.246;9.648;2023-04-06T09:43:50;15.40;58.20
15386;DHT22;7791;47.246;9.648;2023-04-06T09:46:16;16.00;56.40
15386;DHT22;7791;47.246;9.648;2023-04-06T09:48:42;15.90;53.70
15386;DHT22;7791;47.246;9.648;2023-04-06T09:51:12;15.60;54.40
15386;DHT22;7791;47.246;9.648;2023-04-06T09:53:41;16.30;53.50
15386;DHT22;7791;47.246;9.648;2023-04-06T09:56:11;17.40;55.50
15386;DHT22;7791;47.246;9.648;2023-04-06T09:58:40;17.50;54.70
15386;DHT22;7791;47.246;9.648;2023-04-06T10:01:10;17.40;52.70
15386;DHT22;7791;47.246;9.648;2023-04-06T10:03:43;17.30;51.10
15386;DHT22;7791;47.246;9.648;2023-04-06T10:06:11;17.50;52.80
15386;DHT22;7791;47.246;9.648;2023-04-06T10:08:40;17.40;49.40
15386;DHT22;7791;47.246;9.648;2023-04-06T10:11:06;16.90;51.40
15386;DHT22;7791;47.246;9.648;2023-04-06T10:13:33;16.60;51.50
15386;DHT22;7791;47.246;9.648;2023-04-06T10:16:00;16.60;51.10
15386;DHT22;7791;47.246;9.648;2023-04-06T10:18:26;16.70;51.40
15386;DHT22;7791;47.246;9.648;2023-04-06T10:20:56;16.40;52.20
15386;DHT22;7791;47.246;9.648;2023-04-06T10:23:37;16.70;52.90
15386;DHT22;7791;47.246;9.648;2023-04-06T10:26:05;16.90;52.40
15386;DHT22;7791;47.246;9.648;2023-04-06T10:28:32;16.40;51.70
15386;DHT22;7791;47.246;9.648;2023-04-06T10:31:00;16.10;52.10
15386;DHT22;7791;47.246;9.648;2023-04-06T10:33:27;15.30;53.70
15386;DHT22;7791;47.246;9.648;2023-04-06T10:35:52;15.10;54.30
15386;DHT22;7791;47.246;9.648;2023-04-06T10:38:19;14.90;53.80
15386;DHT22;7791;47.246;9.648;2023-04-06T10:40:45;14.70;53.20
15386;DHT22;7791;47.246;9.648;2023-04-06T10:43:13;15.90;53.10
15386;DHT22;7791;47.246;9.648;2023-04-06T10:45:40;17.30;52.70
15386;DHT22;7791;47.246;9.648;2023-04-06T10:48:17;17.80;50.10
15386;DHT22;7791;47.246;9.648;2023-04-06T10:50:44;18.20;51.70
15386;DHT22;7791;47.246;9.648;2023-04-06T10:53:10;19.10;50.40
15386;DHT22;7791;47.246;9.648;2023-04-06T10:55:39;19.00;49.00
15386;DHT22;7791;47.246;9.648;2023-04-06T10:58:06;19.70;49.10
15386;DHT22;7791;47.246;9.648;2023-04-06T11:00:32;19.50;48.20
15386;DHT22;7791;47.246;9.648;2023-04-06T11:02:59;18.60;48.80
15386;DHT22;7791;47.246;9.648;2023-04-06T11:05:26;18.60;48.50
15386;DHT22;7791;47.246;9.648;2023-04-06T11:07:52;19.10;49.80
15386;DHT22;7791;47.246;9.648;2023-04-06T11:10:21;18.50;51.10
15386;DHT22;7791;47.246;9.648;2023-04-06T11:12:52;17.00;51.70
15386;DHT22;7791;47.246;9.648;2023-04-06T11:15:18;16.40;51.00
15386;DHT22;7791;47.246;9.648;2023-04-06T11:17:44;16.40;55.10
15386;DHT22;7791;47.246;9.648;2023-04-06T11:20:11;16.20;51.40
15386;DHT22;7791;47.246;9.648;2023-04-06T11:22:48;16.90;51.50
15386;DHT22;7791;47.246;9.648;2023-04-06T11:25:14;18.10;51.50
15386;DHT22;7791;47.246;9.648;2023-04-06T11:27:40;19.00;49.20
15386;DHT22;7791;47.246;9.648;2023-04-06T11:30:07;18.70;49.60
15386;DHT22;7791;47.246;9.648;2023-04-06T11:32:39;17.30;50.90
15386;DHT22;7791;47.246;9.648;2023-04-06T11:35:06;17.30;49.90
15386;DHT22;7791;47.246;9.648;2023-04-06T11:37:32;16.60;50.90
15386;DHT22;7791;47.246;9.648;2023-04-06T11:39:59;16.50;49.50
15386;DHT22;7791;47.246;9.648;2023-04-06T11:42:26;16.90;51.20
15386;DHT22;7791;47.246;9.648;2023-04-06T11:44:54;17.70;49.80
15386;DHT22;7791;47.246;9.648;2023-04-06T11:47:26;17.10;51.40
15386;DHT22;7791;47.246;9.648;2023-04-06T11:49:52;16.60;51.30
15386;DHT22;7791;47.246;9.648;2023-04-06T11:52:19;16.60;50.80
15386;DHT22;7791;47.246;9.648;2023-04-06T11:54:46;17.20;50.70
15386;DHT22;7791;47.246;9.648;2023-04-06T11:57:13;18.20;47.60
15386;DHT22;7791;47.246;9.648;2023-04-06T11:59:39;18.20;48.80
15386;DHT22;7791;47.246;9.648;2023-04-06T12:02:05;18.10;50.00
15386;DHT22;7791;47.246;9.648;2023-04-06T12:04:31;18.00;51.60
15386;DHT22;7791;47.246;9.648;2023-04-06T12:06:57;18.60;47.00
15386;DHT22;7791;47.246;9.648;2023-04-06T12:09:23;17.70;48.20
15386;DHT22;7791;47.246;9.648;2023-04-06T12:11:48;17.50;49.70
15386;DHT22;7791;47.246;9.648;2023-04-06T12:14:16;16.90;50.20
15386;DHT22;7791;47.246;9.648;2023-04-06T12:16:41;16.30;53.50
15386;DHT22;7791;47.246;9.648;2023-04-06T12:19:07;16.70;52.70
15386;DHT22;7791;47.246;9.648;2023-04-06T12:21:35;16.50;50.70
15386;DHT22;7791;47.246;9.648;2023-04-06T12:24:01;16.80;51.80
15386;DHT22;7791;47.246;9.648;2023-04-06T12:26:27;16.80;51.10
15386;DHT22;7791;47.246;9.648;2023-04-06T12:28:53;17.70;52.10
15386;DHT22;7791;47.246;9.648;2023-04-06T12:31:21;17.60;50.30
15386;DHT22;7791;47.246;9.648;2023-04-06T12:33:47;17.00;53.30
15386;DHT22;7791;47.246;9.648;2023-04-06T12:36:13;16.50;51.30
15386;DHT22;7791;47.246;9.648;2023-04-06T12:38:39;17.70;49.90
15386;DHT22;7791;47.246;9.648;2023-04-06T12:41:05;18.20;50.70
15386;DHT22;7791;47.246;9.648;2023-04-06T12:43:31;17.30;52.40
15386;DHT22;7791;47.246;9.648;2023-04-06T12:45:56;17.10;52.40
15386;DHT22;7791;47.246;9.648;2023-04-06T12:48:23;17.20;53.40
15386;DHT22;7791;47.246;9.648;2023-04-06T12:50:54;17.20;52.40
15386;DHT22;7791;47.246;9.648;2023-04-06T12:53:20;17.70;51.20
15386;DHT22;7791;47.246;9.648;2023-04-06T12:55:45;17.40;51.00
15386;DHT22;7791;47.246;9.648;2023-04-06T12:58:11;17.40;52.90
15386;DHT22;7791;47.246;9.648;2023-04-06T13:00:37;17.60;52.70
15386;DHT22;7791;47.246;9.648;2023-04-06T13:03:02;16.50;52.50
15386;DHT22;7791;47.246;9.648;2023-04-06T13:05:30;16.70;57.30
15386;DHT22;7791;47.246;9.648;2023-04-06T13:07:55;16.00;55.10
15386;DHT22;7791;47.246;9.648;2023-04-06T13:10:21;16.60;54.20
15386;DHT22;7791;47.246;9.648;2023-04-06T13:12:47;17.00;54.30
15386;DHT22;7791;47.246;9.648;2023-04-06T13:15:12;17.00;51.00
15386;DHT22;7791;47.246;9.648;2023-04-06T13:17:38;16.90;50.20
15386;DHT22;7791;47.246;9.648;2023-04-06T13:20:05;17.30;51.10
15386;DHT22;7791;47.246;9.648;2023-04-06T13:22:32;18.40;50.90
15386;DHT22;7791;47.246;9.648;2023-04-06T13:24:58;19.20;49.10
15386;DHT22;7791;47.246;9.648;2023-04-06T13:27:24;18.60;50.90
15386;DHT22;7791;47.246;9.648;2023-04-06T13:29:49;18.00;50.60
15386;DHT22;7791;47.246;9.648;2023-04-06T13:32:15;18.40;50.30
15386;DHT22;7791;47.246;9.648;2023-04-06T13:34:41;17.80;53.60
15386;DHT22;7791;47.246;9.648;2023-04-06T13:37:07;16.90;51.10
15386;DHT22;7791;47.246;9.648;2023-04-06T13:39:34;16.50;51.40
15386;DHT22;7791;47.246;9.648;2023-04-06T13:41:59;16.10;55.40
15386;DHT22;7791;47.246;9.648;2023-04-06T13:44:25;16.20;52.30
15386;DHT22;7791;47.246;9.648;2023-04-06T13:46:51;15.90;53.00
15386;DHT22;7791;47.246;9.648;2023-04-06T13:49:16;16.20;51.00
15386;DHT22;7791;47.246;9.648;2023-04-06T13:51:42;17.20;49.50
15386;DHT22;7791;47.246;9.648;2023-04-06T13:54:08;17.30;48.60
15386;DHT22;7791;47.246;9.648;2023-04-06T13:56:35;16.40;48.90
15386;DHT22;7791;47.246;9.648;2023-04-06T13:59:02;15.50;49.50
15386;DHT22;7791;47.246;9.648;2023-04-06T14:01:28;15.90;51.30
15386;DHT22;7791;47.246;9.648;2023-04-06T14:03:53;15.90;49.30
15386;DHT22;7791;47.246;9.648;2023-04-06T14:06:19;17.20;48.60
15386;DHT22;7791;47.246;9.648;2023-04-06T14:08:45;18.40;49.80
15386;DHT22;7791;47.246;9.648;2023-04-06T14:11:11;19.10;48.10
15386;DHT22;7791;47.246;9.648;2023-04-06T14:13:38;19.30;49.40
15386;DHT22;7791;47.246;9.648;2023-04-06T14:16:05;17.70;49.90
15386;DHT22;7791;47.246;9.648;2023-04-06T14:18:31;16.60;53.30
15386;DHT22;7791;47.246;9.648;2023-04-06T14:20:57;15.70;53.50
15386;DHT22;7791;47.246;9.648;2023-04-06T14:23:23;15.70;52.60
15386;DHT22;7791;47.246;9.648;2023-04-06T14:25:48;15.40;52.20
15386;DHT22;7791;47.246;9.648;2023-04-06T14:28:14;15.70;55.30
15386;DHT22;7791;47.246;9.648;2023-04-06T14:30:41;16.30;54.80
15386;DHT22;7791;47.246;9.648;2023-04-06T14:33:07;16.70;53.60
15386;DHT22;7791;47.246;9.648;2023-04-06T14:35:33;16.50;51.80
15386;DHT22;7791;47.246;9.648;2023-04-06T14:37:58;16.50;52.10
15386;DHT22;7791;47.246;9.648;2023-04-06T14:40:24;16.00;50.70
15386;DHT22;7791;47.246;9.648;2023-04-06T14:42:50;15.60;52.80
15386;DHT22;7791;47.246;9.648;2023-04-06T14:45:15;15.40;53.40
15386;DHT22;7791;47.246;9.648;2023-04-06T14:47:42;15.70;53.50
15386;DHT22;7791;47.246;9.648;2023-04-06T14:50:09;15.60;53.70
15386;DHT22;7791;47.246;9.648;2023-04-06T14:52:35;15.30;53.00
15386;DHT22;7791;47.246;9.648;2023-04-06T14:55:00;15.40;54.00
15386;DHT22;7791;47.246;9.648;2023-04-06T14:57:26;15.30;54.10
15386;DHT22;7791;47.246;9.648;2023-04-06T14:59:52;14.90;53.50
15386;DHT22;7791;47.246;9.648;2023-04-06T15:02:18;14.80;55.50
15386;DHT22;7791;47.246;9.648;2023-04-06T15:04:45;14.90;56.30
15386;DHT22;7791;47.246;9.648;2023-04-06T15:07:11;14.60;54.50
15386;DHT22;7791;47.246;9.648;2023-04-06T15:09:36;14.20;54.70
15386;DHT22;7791;47.246;9.648;2023-04-06T15:12:02;14.20;56.00
15386;DHT22;7791;47.246;9.648;2023-04-06T15:14:28;14.40;54.30
15386;DHT22;7791;47.246;9.648;2023-04-06T15:16:54;14.70;55.70
15386;DHT22;7791;47.246;9.648;2023-04-06T15:19:20;15.10;54.50
15386;DHT22;7791;47.246;9.648;2023-04-06T15:21:47;15.00;56.40
15386;DHT22;7791;47.246;9.648;2023-04-06T15:24:13;13.90;56.50
15386;DHT22;7791;47.246;9.648;2023-04-06T15:26:39;13.80;57.50
15386;DHT22;7791;47.246;9.648;2023-04-06T15:29:05;13.90;57.60
15386;DHT22;7791;47.246;9.648;2023-04-06T15:31:30;13.70;59.40
15386;DHT22;7791;47.246;9.648;2023-04-06T15:33:56;13.40;57.90
15386;DHT22;7791;47.246;9.648;2023-04-06T15:36:24;13.20;58.60
15386;DHT22;7791;47.246;9.648;2023-04-06T15:38:51;12.90;58.90
15386;DHT22;7791;47.246;9.648;2023-04-06T15:41:17;12.60;60.70
15386;DHT22;7791;47.246;9.648;2023-04-06T15:43:42;12.50;60.30